createdAt,value
2022-11-30T00:00:54.434Z,16.10
2022-11-30T00:03:22.085Z,16.50
2022-11-30T00:05:49.601Z,16.92
2022-11-30T00:08:17.076Z,16.55
2022-11-30T00:10:44.827Z,18.85
2022-11-30T00:13:12.388Z,15.15
2022-11-30T00:15:39.910Z,16.50
2022-11-30T00:18:08.915Z,15.98
2022-11-30T00:20:36.523Z,16.08
2022-11-30T00:23:03.795Z,15.32
2022-11-30T00:25:31.151Z,16.80
2022-11-30T00:28:01.245Z,19.42
2022-11-30T00:30:29.145Z,14.68
2022-11-30T00:32:59.732Z,15.07
2022-11-30T00:35:27.128Z,15.23
2022-11-30T00:37:54.847Z,15.85
2022-11-30T00:40:22.678Z,13.98
2022-11-30T00:42:50.351Z,15.35
2022-11-30T00:45:17.740Z,15.77
2022-11-30T00:47:45.162Z,13.05
2022-11-30T00:50:12.781Z,15.57
2022-11-30T00:52:40.922Z,13.48
2022-11-30T00:55:08.596Z,14.40
2022-11-30T00:57:36.183Z,15.05
2022-11-30T01:00:04.124Z,14.00
2022-11-30T01:02:31.576Z,14.93
2022-11-30T01:04:59.094Z,13.38
2022-11-30T01:07:26.488Z,12.88
2022-11-30T01:09:53.829Z,17.48
2022-11-30T01:12:21.464Z,15.23
2022-11-30T01:14:49.133Z,14.25
2022-11-30T01:17:16.628Z,15.73
2022-11-30T01:19:43.969Z,13.70
2022-11-30T01:22:11.341Z,16.10
2022-11-30T01:24:38.747Z,17.65
2022-11-30T01:27:06.072Z,15.35
2022-11-30T01:29:33.392Z,14.60
2022-11-30T01:32:00.651Z,17.38
2022-11-30T01:34:28.109Z,24.55
2022-11-30T01:36:55.390Z,19.77
2022-11-30T01:39:22.721Z,14.60
2022-11-30T01:41:50.069Z,13.50
2022-11-30T01:44:20.019Z,14.98
2022-11-30T01:46:59.113Z,19.67
2022-11-30T01:49:38.821Z,16.02
2022-11-30T01:52:32.428Z,16.40
2022-11-30T01:55:03.745Z,17.48
2022-11-30T01:57:35.725Z,14.70
2022-11-30T02:02:41.196Z,18.88
2022-11-30T02:05:09.732Z,17.58
2022-11-30T02:07:37.086Z,17.15
2022-11-30T02:10:04.551Z,15.05
2022-11-30T02:12:45.598Z,16.58
2022-11-30T02:15:16.941Z,16.38
2022-11-30T02:17:50.386Z,19.15
2022-11-30T02:20:27.068Z,13.95
2022-11-30T02:23:06.702Z,13.02
2022-11-30T02:25:40.157Z,16.83
2022-11-30T02:28:35.350Z,15.98
2022-11-30T02:31:07.673Z,14.75
2022-11-30T02:33:43.767Z,16.48
2022-11-30T02:36:16.749Z,15.50
2022-11-30T02:38:55.772Z,16.27
2022-11-30T02:41:26.980Z,17.00
2022-11-30T02:44:10.318Z,21.10
2022-11-30T02:46:53.395Z,14.88
2022-11-30T02:49:41.622Z,14.60
2022-11-30T02:52:24.404Z,19.10
2022-11-30T02:54:51.829Z,15.63
2022-11-30T02:57:25.099Z,14.77
2022-11-30T03:00:02.983Z,12.98
2022-11-30T03:02:31.779Z,14.32
2022-11-30T03:05:04.525Z,16.73
2022-11-30T03:07:35.019Z,15.07
2022-11-30T03:10:10.315Z,15.82
2022-11-30T03:12:40.178Z,20.33
2022-11-30T03:15:08.159Z,16.55
2022-11-30T03:17:43.292Z,15.48
2022-11-30T03:20:15.584Z,16.85
2022-11-30T03:22:46.276Z,13.63
2022-11-30T03:25:18.745Z,13.68
2022-11-30T03:27:58.911Z,16.65
2022-11-30T03:30:33.987Z,15.80
2022-11-30T03:33:01.559Z,16.08
2022-11-30T03:35:34.029Z,14.02
2022-11-30T03:38:08.227Z,14.23
2022-11-30T03:40:39.868Z,17.35
2022-11-30T03:43:10.002Z,17.13
2022-11-30T03:45:42.092Z,15.93
2022-11-30T03:50:44.495Z,15.02
2022-11-30T03:53:24.312Z,17.02
2022-11-30T03:55:58.441Z,20.70
2022-11-30T04:02:09.940Z,19.42
2022-11-30T04:04:37.776Z,25.00
2022-11-30T04:07:07.822Z,23.50
2022-11-30T04:09:35.364Z,18.98
2022-11-30T04:12:03.449Z,20.95
2022-11-30T04:14:37.538Z,15.40
2022-11-30T04:20:46.210Z,22.15
2022-11-30T04:23:19.699Z,22.98
2022-11-30T04:25:51.059Z,19.58
2022-11-30T04:28:21.739Z,16.27
2022-11-30T04:30:49.328Z,25.75
2022-11-30T04:33:18.673Z,24.23
2022-11-30T04:35:57.626Z,17.08
2022-11-30T04:38:31.086Z,17.98
2022-11-30T04:41:18.700Z,20.45
2022-11-30T04:43:49.091Z,16.23
2022-11-30T04:46:22.654Z,16.40
2022-11-30T04:48:50.449Z,15.85
2022-11-30T04:51:26.807Z,15.88
2022-11-30T04:53:57.164Z,13.95
2022-11-30T04:56:26.133Z,16.30
2022-11-30T04:58:53.400Z,13.70
2022-11-30T05:01:23.568Z,17.23
2022-11-30T05:03:51.096Z,13.77
2022-11-30T05:06:18.453Z,15.50
2022-11-30T05:08:53.536Z,17.88
2022-11-30T05:11:23.349Z,15.35
2022-11-30T05:13:54.569Z,23.02
2022-11-30T05:16:22.176Z,17.95
2022-11-30T05:18:51.662Z,19.52
2022-11-30T05:21:22.619Z,16.65
2022-11-30T05:23:52.341Z,19.98
2022-11-30T05:26:22.402Z,24.90
2022-11-30T05:28:59.000Z,21.67
2022-11-30T05:31:31.880Z,18.27
2022-11-30T05:36:59.974Z,21.23
2022-11-30T05:39:46.526Z,20.70
2022-11-30T05:42:14.272Z,22.95
2022-11-30T05:44:41.891Z,18.67
2022-11-30T05:47:13.997Z,21.73
2022-11-30T05:49:42.107Z,21.33
2022-11-30T05:52:22.249Z,19.52
2022-11-30T05:54:51.751Z,19.20
2022-11-30T05:57:31.230Z,20.55
2022-11-30T06:00:04.233Z,19.23
2022-11-30T06:02:39.318Z,25.05
2022-11-30T06:05:09.518Z,18.88
2022-11-30T06:07:40.978Z,21.23
2022-11-30T06:10:16.495Z,20.30
2022-11-30T06:12:47.731Z,17.77
2022-11-30T06:15:15.393Z,21.25
2022-11-30T06:17:48.450Z,23.75
2022-11-30T06:20:17.595Z,21.38
2022-11-30T06:22:51.486Z,18.83
2022-11-30T06:25:22.968Z,19.10
2022-11-30T06:27:56.029Z,17.88
2022-11-30T06:30:42.836Z,22.85
2022-11-30T06:33:17.449Z,15.88
2022-11-30T06:40:06.513Z,19.98
2022-11-30T06:42:45.858Z,19.95
2022-11-30T06:45:15.006Z,15.73
2022-11-30T06:47:47.271Z,14.13
2022-11-30T06:50:15.204Z,19.63
2022-11-30T06:52:45.718Z,18.92
2022-11-30T06:55:14.422Z,16.83
2022-11-30T06:57:44.043Z,16.23
2022-11-30T07:00:38.868Z,17.35
2022-11-30T07:06:38.314Z,23.95
2022-11-30T07:09:14.500Z,19.73
2022-11-30T07:11:50.896Z,17.15
2022-11-30T07:15:13.675Z,15.57
2022-11-30T07:17:31.996Z,20.75
2022-11-30T07:20:25.284Z,25.00
2022-11-30T07:23:03.498Z,20.88
2022-11-30T07:25:52.368Z,20.15
2022-11-30T07:28:27.088Z,16.58
2022-11-30T07:30:55.985Z,18.50
2022-11-30T07:33:27.583Z,19.02
2022-11-30T07:36:00.335Z,18.30
2022-11-30T07:38:28.093Z,23.13
2022-11-30T07:40:58.167Z,20.77
2022-11-30T07:43:28.983Z,21.15
2022-11-30T07:46:17.301Z,22.10
2022-11-30T07:48:48.429Z,24.35
2022-11-30T07:51:18.474Z,20.77
2022-11-30T07:53:50.392Z,21.88
2022-11-30T07:56:27.487Z,29.70
2022-11-30T07:58:59.725Z,30.08
2022-11-30T08:01:48.282Z,24.05
2022-11-30T08:04:18.989Z,20.38
2022-11-30T08:07:06.774Z,22.08
2022-11-30T08:09:45.224Z,23.73
2022-11-30T08:12:15.778Z,24.80
2022-11-30T08:15:18.296Z,23.02
2022-11-30T08:17:32.188Z,22.17
2022-11-30T08:20:28.378Z,21.20
2022-11-30T08:23:08.249Z,24.10
2022-11-30T08:25:58.600Z,20.58
2022-11-30T08:34:01.426Z,25.25
2022-11-30T08:36:29.624Z,22.13
2022-11-30T08:39:01.020Z,24.38
2022-11-30T08:41:28.702Z,22.40
2022-11-30T08:43:56.234Z,21.20
2022-11-30T08:49:21.590Z,22.00
2022-11-30T08:52:16.438Z,19.50
2022-11-30T08:54:40.075Z,20.55
2022-11-30T08:57:07.453Z,23.65
2022-11-30T08:59:34.910Z,21.60
2022-11-30T09:02:02.388Z,20.95
2022-11-30T09:04:30.128Z,23.23
2022-11-30T09:06:59.036Z,23.60
2022-11-30T09:09:26.707Z,23.20
2022-11-30T09:11:54.244Z,22.15
2022-11-30T09:14:21.784Z,21.65
2022-11-30T09:16:49.218Z,23.27
2022-11-30T09:19:16.616Z,23.58
2022-11-30T09:21:50.977Z,22.13
2022-11-30T09:24:19.223Z,19.38
2022-11-30T09:26:46.615Z,21.35
2022-11-30T09:29:14.077Z,22.58
2022-11-30T09:31:41.554Z,23.15
2022-11-30T09:34:11.457Z,25.73
2022-11-30T09:36:38.845Z,20.48
2022-11-30T09:39:06.680Z,22.65
2022-11-30T09:41:53.944Z,20.83
2022-11-30T09:44:44.079Z,20.73
2022-11-30T09:47:12.237Z,21.70
2022-11-30T09:49:46.749Z,23.98
2022-11-30T09:52:18.597Z,22.73
2022-11-30T09:54:48.041Z,22.10
2022-11-30T09:57:15.660Z,20.27
2022-11-30T09:59:45.356Z,21.15
2022-11-30T10:02:17.751Z,21.23
2022-11-30T10:04:45.832Z,20.63
2022-11-30T10:07:32.389Z,17.88
2022-11-30T10:13:28.351Z,15.80
2022-11-30T10:15:58.550Z,18.98
2022-11-30T10:18:37.923Z,21.88
2022-11-30T10:21:17.352Z,21.00
2022-11-30T10:23:53.951Z,18.45
2022-11-30T10:26:25.686Z,21.83
2022-11-30T10:28:54.392Z,23.40
2022-11-30T10:31:33.574Z,23.60
2022-11-30T10:34:19.265Z,19.77
2022-11-30T10:36:48.913Z,20.23
2022-11-30T10:39:29.646Z,17.30
2022-11-30T10:42:11.174Z,21.63
2022-11-30T10:44:42.930Z,19.45
2022-11-30T10:47:18.044Z,20.83
2022-11-30T10:49:50.151Z,23.67
2022-11-30T10:52:37.717Z,23.95
2022-11-30T10:55:13.311Z,21.73
2022-11-30T10:57:40.876Z,22.25
2022-11-30T11:00:13.780Z,19.88
2022-11-30T11:02:42.852Z,20.40
2022-11-30T11:05:22.543Z,22.10
2022-11-30T11:07:52.168Z,21.73
2022-11-30T11:10:21.209Z,26.80
2022-11-30T11:12:52.609Z,25.30
2022-11-30T11:15:25.656Z,27.60
2022-11-30T11:17:53.699Z,24.13
2022-11-30T11:20:32.384Z,27.30
2022-11-30T11:22:59.827Z,25.58
2022-11-30T11:25:27.117Z,32.63
2022-11-30T11:27:56.239Z,24.42
2022-11-30T11:30:26.610Z,25.20
2022-11-30T11:33:01.626Z,22.88
2022-11-30T11:35:34.041Z,24.25
2022-11-30T11:38:01.406Z,27.00
2022-11-30T11:40:28.855Z,31.83
2022-11-30T11:42:59.771Z,24.17
2022-11-30T11:45:29.379Z,30.38
2022-11-30T11:48:11.771Z,26.45
2022-11-30T11:53:43.292Z,23.13
2022-11-30T11:56:18.460Z,24.77
2022-11-30T11:58:49.921Z,25.05
2022-11-30T12:04:17.947Z,26.88
2022-11-30T12:06:46.015Z,24.30
2022-11-30T12:09:15.854Z,30.33
2022-11-30T12:11:45.021Z,26.02
2022-11-30T12:14:13.386Z,26.85
2022-11-30T12:16:59.044Z,23.08
2022-11-30T12:19:37.626Z,22.75
2022-11-30T12:22:08.101Z,24.50
2022-11-30T12:24:41.407Z,24.27
2022-11-30T12:27:27.767Z,23.85
2022-11-30T12:30:06.251Z,24.67
2022-11-30T12:32:56.892Z,22.65
2022-11-30T12:35:27.309Z,24.48
2022-11-30T12:37:54.585Z,23.83
2022-11-30T12:40:28.334Z,20.35
2022-11-30T12:43:10.085Z,20.67
2022-11-30T12:45:40.150Z,19.17
2022-11-30T12:48:07.456Z,18.52
2022-11-30T12:50:45.855Z,23.08
2022-11-30T12:53:21.629Z,20.48
2022-11-30T12:55:58.597Z,21.38
2022-11-30T12:58:37.702Z,20.30
2022-11-30T13:01:05.260Z,18.15
2022-11-30T13:03:42.522Z,20.40
2022-11-30T13:06:15.963Z,23.52
2022-11-30T13:08:49.607Z,20.45
2022-11-30T13:11:32.679Z,23.63
2022-11-30T13:14:00.688Z,21.05
2022-11-30T13:16:30.269Z,21.40
2022-11-30T13:19:02.363Z,20.25
2022-11-30T13:24:06.351Z,16.35
2022-11-30T13:26:36.501Z,16.83
2022-11-30T13:29:07.033Z,16.65
2022-11-30T13:31:44.191Z,18.92
2022-11-30T13:34:28.321Z,20.38
2022-11-30T13:37:01.520Z,17.65
2022-11-30T13:39:30.214Z,16.13
2022-11-30T13:42:03.546Z,14.80
2022-11-30T13:44:32.773Z,16.58
2022-11-30T13:47:01.043Z,18.05
2022-11-30T13:49:35.778Z,14.60
2022-11-30T13:54:54.507Z,15.73
2022-11-30T13:57:26.362Z,19.40
2022-11-30T13:59:54.623Z,17.67
2022-11-30T14:02:48.711Z,14.10
2022-11-30T14:05:19.175Z,15.52
2022-11-30T14:07:46.622Z,15.05
2022-11-30T14:10:30.830Z,15.77
2022-11-30T14:13:10.667Z,17.33
2022-11-30T14:15:44.129Z,18.63
2022-11-30T14:18:11.410Z,18.02
2022-11-30T14:20:57.533Z,18.05
2022-11-30T14:23:40.100Z,19.20
2022-11-30T14:26:11.234Z,16.98
2022-11-30T14:28:41.914Z,16.85
2022-11-30T14:31:11.240Z,15.40
2022-11-30T14:33:46.435Z,18.05
2022-11-30T14:36:14.682Z,17.13
2022-11-30T14:38:43.099Z,17.30
2022-11-30T14:41:24.630Z,18.08
2022-11-30T14:44:05.690Z,16.55
2022-11-30T14:46:58.427Z,17.35
2022-11-30T14:49:26.311Z,14.68
2022-11-30T14:52:02.725Z,21.35
2022-11-30T14:54:49.127Z,16.02
2022-11-30T14:57:32.766Z,24.08
2022-11-30T15:00:02.416Z,21.38
2022-11-30T15:02:38.803Z,27.02
2022-11-30T15:05:09.593Z,25.60
2022-11-30T15:07:43.585Z,27.33
2022-11-30T15:10:20.880Z,31.55
2022-11-30T15:12:55.180Z,23.92
2022-11-30T15:15:26.275Z,20.85
2022-11-30T15:18:10.256Z,19.63
2022-11-30T15:20:48.315Z,27.65
2022-11-30T15:23:16.194Z,29.98
2022-11-30T15:26:03.865Z,28.30
2022-11-30T15:28:41.136Z,28.23
2022-11-30T15:33:47.962Z,23.88
2022-11-30T15:36:32.023Z,23.65
2022-11-30T15:39:03.118Z,23.33
2022-11-30T15:41:30.447Z,25.38
2022-11-30T15:43:58.186Z,22.05
2022-11-30T15:46:39.801Z,23.90
2022-11-30T15:49:11.708Z,24.10
2022-11-30T15:51:42.954Z,23.13
2022-11-30T15:54:10.271Z,25.02
2022-11-30T15:56:37.939Z,28.38
2022-11-30T15:59:24.935Z,24.60
2022-11-30T16:02:02.261Z,22.42
2022-11-30T16:04:49.841Z,22.05
2022-11-30T16:07:17.929Z,26.98
2022-11-30T16:09:45.491Z,22.38
2022-11-30T16:12:20.714Z,22.77
2022-11-30T16:14:48.070Z,21.00
2022-11-30T16:17:15.477Z,21.23
2022-11-30T16:19:42.973Z,23.88
2022-11-30T16:22:12.583Z,25.30
2022-11-30T16:24:40.122Z,17.15
2022-11-30T16:27:17.125Z,19.00
2022-11-30T16:29:47.922Z,20.95
2022-11-30T16:32:19.466Z,24.85
2022-11-30T16:34:48.497Z,24.83
2022-11-30T16:37:15.765Z,20.33
2022-11-30T16:39:43.580Z,22.67
2022-11-30T16:42:14.148Z,20.63
2022-11-30T16:44:41.444Z,23.23
2022-11-30T16:47:08.737Z,20.42
2022-11-30T16:49:36.249Z,25.30
2022-11-30T16:52:03.948Z,28.45
2022-11-30T16:54:31.428Z,22.58
2022-11-30T16:56:58.707Z,30.20
2022-11-30T16:59:26.043Z,27.83
2022-11-30T17:01:53.732Z,28.95
2022-11-30T17:04:40.997Z,22.90
2022-11-30T17:07:09.027Z,25.00
2022-11-30T17:09:36.384Z,26.30
2022-11-30T17:12:04.185Z,28.27
2022-11-30T17:14:31.539Z,25.83
2022-11-30T17:17:00.963Z,27.45
2022-11-30T17:19:28.787Z,23.33
2022-11-30T17:21:56.097Z,17.65
2022-11-30T17:24:23.392Z,22.55
2022-11-30T17:26:50.639Z,24.67
2022-11-30T17:29:18.174Z,22.30
2022-11-30T17:31:45.505Z,20.30
2022-11-30T17:34:13.416Z,19.67
2022-11-30T17:36:40.704Z,21.17
2022-11-30T17:39:08.677Z,22.35
2022-11-30T17:41:36.201Z,24.20
2022-11-30T17:44:03.961Z,26.80
2022-11-30T17:46:31.358Z,22.58
2022-11-30T17:48:58.813Z,20.05
2022-11-30T17:51:26.275Z,24.48
2022-11-30T17:53:53.724Z,23.92
2022-11-30T17:56:21.257Z,22.75
2022-11-30T17:58:49.334Z,27.55
2022-11-30T18:01:16.766Z,26.38
2022-11-30T18:03:44.758Z,22.00
2022-11-30T18:06:12.180Z,23.65
2022-11-30T18:08:40.164Z,27.70
2022-11-30T18:11:11.825Z,24.27
2022-11-30T18:13:39.547Z,25.95
2022-11-30T18:16:07.798Z,25.50
2022-11-30T18:18:35.167Z,25.90
2022-11-30T18:21:09.424Z,22.67
2022-11-30T18:23:37.271Z,26.90
2022-11-30T18:26:05.724Z,24.00
2022-11-30T18:28:33.240Z,31.48
2022-11-30T18:31:00.777Z,33.88
2022-11-30T18:33:28.189Z,28.65
2022-11-30T18:35:58.794Z,35.33
2022-11-30T18:38:26.474Z,43.65
2022-11-30T18:40:53.829Z,36.97
2022-11-30T18:43:21.728Z,33.78
2022-11-30T18:45:49.103Z,28.80
2022-11-30T18:48:16.416Z,35.75
2022-11-30T18:50:43.668Z,28.90
2022-11-30T18:53:15.197Z,37.05
2022-11-30T18:55:45.460Z,32.80
2022-11-30T18:58:12.816Z,37.67
2022-11-30T19:00:40.115Z,37.55
2022-11-30T19:03:07.697Z,35.08
2022-11-30T19:05:38.158Z,41.42
2022-11-30T19:08:06.917Z,30.67
2022-11-30T19:10:38.455Z,33.97
2022-11-30T19:13:06.518Z,32.83
2022-11-30T19:15:40.564Z,31.23
2022-11-30T19:18:08.229Z,30.63
2022-11-30T19:20:39.337Z,37.17
2022-11-30T19:23:06.676Z,28.40
2022-11-30T19:25:33.959Z,22.30
2022-11-30T19:28:01.241Z,27.65
2022-11-30T19:30:28.571Z,25.15
2022-11-30T19:32:55.937Z,21.67
2022-11-30T19:35:24.997Z,26.27
2022-11-30T19:37:52.730Z,24.73
2022-11-30T19:40:20.100Z,29.25
2022-11-30T19:42:47.432Z,24.98
2022-11-30T19:45:14.696Z,26.15
2022-11-30T19:47:42.071Z,27.02
2022-11-30T19:50:09.426Z,24.15
2022-11-30T19:52:36.758Z,25.52
2022-11-30T19:55:04.280Z,22.85
2022-11-30T19:57:31.660Z,25.88
2022-11-30T19:59:59.127Z,32.03
2022-11-30T20:02:26.731Z,28.00
2022-11-30T20:04:54.119Z,29.02
2022-11-30T20:07:21.628Z,31.20
2022-11-30T20:09:48.937Z,36.67
2022-11-30T20:12:16.342Z,27.55
2022-11-30T20:14:44.392Z,28.63
2022-11-30T20:17:11.785Z,22.10
2022-11-30T20:19:39.252Z,32.70
2022-11-30T20:22:09.519Z,27.88
2022-11-30T20:24:37.258Z,26.40
2022-11-30T20:27:04.722Z,26.30
2022-11-30T20:29:32.078Z,23.98
2022-11-30T20:31:59.645Z,21.90
2022-11-30T20:34:32.727Z,21.58
2022-11-30T20:37:02.150Z,23.20
2022-11-30T20:39:30.916Z,28.52
2022-11-30T20:42:00.627Z,26.17
2022-11-30T20:44:28.192Z,25.10
2022-11-30T20:46:55.696Z,27.48
2022-11-30T20:49:25.073Z,24.65
2022-11-30T20:51:53.367Z,22.83
2022-11-30T20:54:20.893Z,22.45
2022-11-30T20:56:51.208Z,23.02
2022-11-30T20:59:22.171Z,29.00
2022-11-30T21:01:49.878Z,22.30
2022-11-30T21:04:17.558Z,19.95
2022-11-30T21:06:47.954Z,20.17
2022-11-30T21:09:16.418Z,22.85
2022-11-30T21:11:44.357Z,26.30
2022-11-30T21:14:12.212Z,18.33
2022-11-30T21:16:39.605Z,22.02
2022-11-30T21:19:07.192Z,22.80
2022-11-30T21:21:36.184Z,23.00
2022-11-30T21:24:04.983Z,20.98
2022-11-30T21:26:36.657Z,22.23
2022-11-30T21:29:08.672Z,23.70
2022-11-30T21:34:03.716Z,23.20
2022-11-30T21:36:31.236Z,26.70
2022-11-30T21:39:05.040Z,25.70
2022-11-30T21:41:33.989Z,28.58
2022-11-30T21:44:01.803Z,32.67
2022-11-30T21:46:29.943Z,30.58
2022-11-30T21:48:57.518Z,28.67
2022-11-30T21:51:26.370Z,32.65
2022-11-30T21:53:54.571Z,26.90
2022-11-30T21:56:23.056Z,31.63
2022-11-30T21:58:50.868Z,40.25
2022-11-30T22:01:19.608Z,34.90
2022-11-30T22:03:47.100Z,29.20
2022-11-30T22:06:15.861Z,26.35
2022-11-30T22:08:43.819Z,26.30
2022-11-30T22:11:15.943Z,25.63
2022-11-30T22:13:43.699Z,27.23
2022-11-30T22:16:17.982Z,28.40
2022-11-30T22:18:45.616Z,20.20
2022-11-30T22:21:12.852Z,22.25
2022-11-30T22:23:43.125Z,18.77
2022-11-30T22:26:25.668Z,18.90
2022-11-30T22:28:54.003Z,21.67
2022-11-30T22:31:22.311Z,19.77
2022-11-30T22:33:49.986Z,19.92
2022-11-30T22:36:18.547Z,18.83
2022-11-30T22:38:46.247Z,24.70
2022-11-30T22:41:17.841Z,22.20
2022-11-30T22:43:46.290Z,25.52
2022-11-30T22:46:18.311Z,27.77
2022-11-30T22:48:45.956Z,24.38
2022-11-30T22:51:20.502Z,22.58
2022-11-30T22:53:48.253Z,26.90
2022-11-30T22:56:16.936Z,22.67
2022-11-30T22:58:44.756Z,23.25
2022-11-30T23:01:16.287Z,29.02
2022-11-30T23:03:44.283Z,22.60
2022-11-30T23:06:12.242Z,27.98
2022-11-30T23:08:39.755Z,24.00
2022-11-30T23:11:17.971Z,28.23
2022-11-30T23:13:45.410Z,25.55
2022-11-30T23:16:14.123Z,30.80
2022-11-30T23:18:42.852Z,33.40
2022-11-30T23:21:12.768Z,25.80
2022-11-30T23:23:40.392Z,26.38
2022-11-30T23:26:12.509Z,33.42
2022-11-30T23:28:41.100Z,29.08
2022-11-30T23:31:34.551Z,30.35
2022-11-30T23:34:00.269Z,32.55
2022-11-30T23:36:27.549Z,25.77
2022-11-30T23:38:56.756Z,25.30
2022-11-30T23:41:24.357Z,33.90
2022-11-30T23:43:51.642Z,30.52
2022-11-30T23:46:19.296Z,26.48
2022-11-30T23:48:46.663Z,26.38
2022-11-30T23:51:14.022Z,25.67
2022-11-30T23:53:41.339Z,33.72
2022-11-30T23:56:10.085Z,30.05
2022-11-30T23:58:37.387Z,33.05
